createdAt,value
2023-05-13T00:00:29.513Z,55.46
2023-05-13T00:01:29.827Z,56.39
2023-05-13T00:02:30.164Z,55.54
2023-05-13T00:03:29.559Z,57.63
2023-05-13T00:04:29.520Z,56.77
2023-05-13T00:05:29.468Z,56.26
2023-05-13T00:06:29.500Z,60.87
2023-05-13T00:07:29.440Z,58.75
2023-05-13T00:08:29.456Z,57.05
2023-05-13T00:09:29.443Z,58.84
2023-05-13T00:10:29.421Z,60.44
2023-05-13T00:11:29.392Z,57.60
2023-05-13T00:12:29.458Z,60.44
2023-05-13T00:13:29.365Z,53.45
2023-05-13T00:14:29.354Z,55.95
2023-05-13T00:15:29.407Z,54.23
2023-05-13T00:16:29.459Z,53.24
2023-05-13T00:17:29.371Z,55.27
2023-05-13T00:18:29.343Z,55.24
2023-05-13T00:19:29.324Z,52.79
2023-05-13T00:20:29.348Z,53.17
2023-05-13T00:21:29.283Z,54.73
2023-05-13T00:22:29.258Z,54.95
2023-05-13T00:23:29.338Z,54.65
2023-05-13T00:24:29.378Z,53.41
2023-05-13T00:25:29.250Z,53.94
2023-05-13T00:26:29.245Z,52.61
2023-05-13T00:27:29.217Z,56.51
2023-05-13T00:28:29.591Z,57.11
2023-05-13T00:29:29.190Z,57.57
2023-05-13T00:30:29.200Z,56.79
2023-05-13T00:31:29.225Z,56.76
2023-05-13T00:32:29.229Z,57.16
2023-05-13T00:33:29.148Z,57.80
2023-05-13T00:34:29.204Z,57.02
2023-05-13T00:35:29.130Z,57.18
2023-05-13T00:36:29.130Z,57.37
2023-05-13T00:37:29.124Z,57.17
2023-05-13T00:38:29.147Z,57.04
2023-05-13T00:39:29.157Z,56.29
2023-05-13T00:40:29.060Z,55.54
2023-05-13T00:41:29.133Z,57.76
2023-05-13T00:42:29.170Z,57.62
2023-05-13T00:43:29.034Z,54.78
2023-05-13T00:44:29.082Z,55.93
2023-05-13T00:45:29.479Z,56.68
2023-05-13T00:46:29.080Z,54.90
2023-05-13T00:47:29.048Z,54.94
2023-05-13T00:48:29.013Z,58.68
2023-05-13T00:49:29.019Z,58.87
2023-05-13T00:50:28.976Z,59.65
2023-05-13T00:51:29.009Z,57.51
2023-05-13T00:52:28.957Z,60.08
2023-05-13T00:53:29.010Z,58.68
2023-05-13T00:54:28.941Z,56.51
2023-05-13T00:55:28.931Z,59.14
2023-05-13T00:56:28.915Z,59.20
2023-05-13T00:57:29.698Z,59.12
2023-05-13T00:58:28.902Z,57.90
2023-05-13T00:59:28.926Z,60.20
2023-05-13T01:00:28.895Z,57.17
2023-05-13T01:01:28.904Z,59.22
2023-05-13T01:02:29.627Z,55.79
2023-05-13T01:03:28.823Z,54.89
2023-05-13T01:04:28.827Z,59.02
2023-05-13T01:05:29.749Z,58.89
2023-05-13T01:06:28.813Z,57.52
2023-05-13T01:07:28.881Z,56.71
2023-05-13T01:08:29.759Z,57.26
2023-05-13T01:09:28.786Z,59.97
2023-05-13T01:10:28.806Z,58.43
2023-05-13T01:11:28.786Z,62.29
2023-05-13T01:12:28.746Z,59.16
2023-05-13T01:13:29.369Z,54.62
2023-05-13T01:14:28.902Z,61.45
2023-05-13T01:15:28.734Z,58.84
2023-05-13T01:16:28.733Z,61.16
2023-05-13T01:17:28.858Z,59.13
2023-05-13T01:18:28.771Z,57.62
2023-05-13T01:19:28.658Z,58.86
2023-05-13T01:20:28.619Z,57.68
2023-05-13T01:21:28.681Z,57.12
2023-05-13T01:22:28.717Z,54.81
2023-05-13T01:23:28.604Z,58.87
2023-05-13T01:24:28.625Z,58.41
2023-05-13T01:25:28.561Z,57.54
2023-05-13T01:26:28.599Z,56.33
2023-05-13T01:27:28.590Z,53.29
2023-05-13T01:28:28.557Z,59.29
2023-05-13T01:29:28.525Z,57.81
2023-05-13T01:30:28.539Z,57.09
2023-05-13T01:31:28.540Z,56.62
2023-05-13T01:32:28.580Z,56.96
2023-05-13T01:33:28.589Z,56.86
2023-05-13T01:34:28.473Z,58.92
2023-05-13T01:35:28.524Z,57.61
2023-05-13T01:36:28.453Z,57.41
2023-05-13T01:37:28.445Z,56.64
2023-05-13T01:38:28.529Z,55.24
2023-05-13T01:39:28.421Z,54.01
2023-05-13T01:40:32.320Z,56.79
2023-05-13T01:41:28.409Z,54.25
2023-05-13T01:42:28.404Z,56.46
2023-05-13T01:43:28.371Z,54.64
2023-05-13T01:44:28.380Z,56.89
2023-05-13T01:45:28.374Z,58.36
2023-05-13T01:46:28.459Z,61.44
2023-05-13T01:47:28.442Z,58.14
2023-05-13T01:48:28.337Z,60.96
2023-05-13T01:49:28.322Z,60.11
2023-05-13T01:50:28.319Z,61.37
2023-05-13T01:51:28.270Z,64.03
2023-05-13T01:52:28.449Z,60.72
2023-05-13T01:53:28.261Z,63.07
2023-05-13T01:54:28.291Z,61.23
2023-05-13T01:55:28.238Z,63.41
2023-05-13T01:56:28.199Z,55.35
2023-05-13T01:57:28.328Z,62.81
2023-05-13T01:58:28.196Z,61.40
2023-05-13T01:59:28.197Z,60.38
2023-05-13T02:00:28.250Z,59.16
2023-05-13T02:01:28.243Z,61.03
2023-05-13T02:02:28.221Z,62.39
2023-05-13T02:03:28.335Z,64.49
2023-05-13T02:04:28.180Z,63.14
2023-05-13T02:05:28.203Z,62.59
2023-05-13T02:06:28.102Z,63.42
2023-05-13T02:07:28.124Z,63.18
2023-05-13T02:08:28.096Z,62.53
2023-05-13T02:09:28.078Z,62.19
2023-05-13T02:10:28.061Z,61.83
2023-05-13T02:11:28.108Z,62.04
2023-05-13T02:12:28.041Z,59.06
2023-05-13T02:13:28.053Z,60.11
2023-05-13T02:14:28.072Z,60.17
2023-05-13T02:15:28.015Z,64.13
2023-05-13T02:16:28.104Z,60.11
2023-05-13T02:17:28.139Z,56.29
2023-05-13T02:18:28.044Z,61.34
2023-05-13T02:19:27.959Z,62.36
2023-05-13T02:20:27.954Z,61.79
2023-05-13T02:21:28.018Z,61.19
2023-05-13T02:22:27.977Z,60.49
2023-05-13T02:23:27.963Z,63.30
2023-05-13T02:24:27.910Z,59.14
2023-05-13T02:25:27.891Z,58.30
2023-05-13T02:26:27.987Z,60.85
2023-05-13T02:27:27.912Z,61.16
2023-05-13T02:28:27.868Z,62.03
2023-05-13T02:29:27.891Z,60.97
2023-05-13T02:30:27.863Z,57.53
2023-05-13T02:31:27.914Z,59.05
2023-05-13T02:32:28.028Z,60.94
2023-05-13T02:33:27.844Z,62.68
2023-05-13T02:34:27.850Z,62.08
2023-05-13T02:35:27.816Z,64.47
2023-05-13T02:36:27.839Z,63.61
2023-05-13T02:37:27.906Z,63.99
2023-05-13T02:38:27.819Z,63.38
2023-05-13T02:39:27.743Z,64.38
2023-05-13T02:40:27.797Z,65.23
2023-05-13T02:41:27.695Z,65.35
2023-05-13T02:42:28.841Z,65.45
2023-05-13T02:43:27.736Z,66.58
2023-05-13T02:44:27.693Z,63.77
2023-05-13T02:45:27.709Z,65.50
2023-05-13T02:46:27.848Z,62.70
2023-05-13T02:47:28.055Z,66.06
2023-05-13T02:48:27.688Z,63.05
2023-05-13T02:49:27.662Z,62.39
2023-05-13T02:50:27.606Z,62.42
2023-05-13T02:51:27.693Z,63.06
2023-05-13T02:52:27.629Z,65.55
2023-05-13T02:53:27.627Z,61.37
2023-05-13T02:54:27.636Z,64.42
2023-05-13T02:55:27.581Z,62.37
2023-05-13T02:56:27.858Z,62.26
2023-05-13T02:57:27.580Z,63.12
2023-05-13T02:58:27.586Z,63.26
2023-05-13T02:59:27.555Z,62.37
2023-05-13T03:00:27.594Z,60.07
2023-05-13T03:01:27.569Z,61.66
2023-05-13T03:02:27.572Z,59.67
2023-05-13T03:03:27.564Z,63.16
2023-05-13T03:04:27.538Z,61.47
2023-05-13T03:05:29.763Z,62.20
2023-05-13T03:06:27.462Z,60.00
2023-05-13T03:07:27.502Z,61.77
2023-05-13T03:08:27.423Z,63.85
2023-05-13T03:09:27.495Z,61.68
2023-05-13T03:10:27.482Z,60.82
2023-05-13T03:11:27.443Z,62.24
2023-05-13T03:12:27.436Z,63.20
2023-05-13T03:13:27.364Z,63.37
2023-05-13T03:14:27.366Z,60.06
2023-05-13T03:15:27.422Z,61.98
2023-05-13T03:16:27.401Z,63.30
2023-05-13T03:17:27.350Z,64.44
2023-05-13T03:18:27.359Z,63.24
2023-05-13T03:19:27.288Z,62.44
2023-05-13T03:20:27.457Z,62.94
2023-05-13T03:21:27.283Z,64.47
2023-05-13T03:22:27.303Z,64.96
2023-05-13T03:23:27.279Z,62.79
2023-05-13T03:24:27.237Z,61.15
2023-05-13T03:25:27.283Z,63.40
2023-05-13T03:26:27.248Z,62.13
2023-05-13T03:27:27.233Z,63.65
2023-05-13T03:28:27.247Z,62.40
2023-05-13T03:29:27.203Z,62.62
2023-05-13T03:30:27.188Z,63.26
2023-05-13T03:31:27.250Z,61.21
2023-05-13T03:32:27.406Z,60.81
2023-05-13T03:33:27.132Z,61.07
2023-05-13T03:34:27.190Z,62.74
2023-05-13T03:35:27.143Z,65.68
2023-05-13T03:36:27.193Z,63.85
2023-05-13T03:37:27.167Z,63.68
2023-05-13T03:38:27.079Z,61.63
2023-05-13T03:39:27.167Z,62.86
2023-05-13T03:40:27.095Z,62.23
2023-05-13T03:41:27.037Z,61.32
2023-05-13T03:42:27.704Z,61.23
2023-05-13T03:43:27.077Z,61.67
2023-05-13T03:44:27.033Z,62.77
2023-05-13T03:45:27.018Z,59.87
2023-05-13T03:46:27.116Z,62.33
2023-05-13T03:47:27.074Z,62.38
2023-05-13T03:48:26.973Z,62.53
2023-05-13T03:49:26.976Z,60.02
2023-05-13T03:50:26.939Z,62.86
2023-05-13T03:51:27.539Z,64.11
2023-05-13T03:52:27.104Z,60.69
2023-05-13T03:53:26.927Z,64.87
2023-05-13T03:54:26.905Z,63.91
2023-05-13T03:55:26.895Z,62.53
2023-05-13T03:56:26.892Z,61.27
2023-05-13T03:57:27.004Z,63.37
2023-05-13T03:58:26.905Z,63.21
2023-05-13T03:59:26.885Z,61.48
2023-05-13T04:00:26.896Z,63.76
2023-05-13T04:01:26.830Z,63.49
2023-05-13T04:02:27.034Z,62.88
2023-05-13T04:03:26.828Z,62.09
2023-05-13T04:04:26.835Z,60.89
2023-05-13T04:05:26.806Z,61.41
2023-05-13T04:06:26.769Z,60.34
2023-05-13T04:07:26.769Z,64.04
2023-05-13T04:08:26.742Z,62.22
2023-05-13T04:09:26.762Z,61.20
2023-05-13T04:10:26.710Z,60.93
2023-05-13T04:11:26.683Z,63.18
2023-05-13T04:12:26.693Z,64.47
2023-05-13T04:13:26.691Z,65.20
2023-05-13T04:14:26.695Z,63.04
2023-05-13T04:15:26.691Z,64.40
2023-05-13T04:16:26.676Z,62.47
2023-05-13T04:17:26.635Z,61.49
2023-05-13T04:18:26.708Z,63.29
2023-05-13T04:19:26.650Z,66.32
2023-05-13T04:20:26.602Z,64.03
2023-05-13T04:21:26.629Z,61.27
2023-05-13T04:22:26.613Z,64.69
2023-05-13T04:23:26.558Z,67.47
2023-05-13T04:24:26.572Z,66.01
2023-05-13T04:25:26.599Z,66.05
2023-05-13T04:26:26.551Z,65.75
2023-05-13T04:27:26.542Z,64.07
2023-05-13T04:28:26.540Z,64.75
2023-05-13T04:29:27.499Z,65.82
2023-05-13T04:30:26.519Z,65.27
2023-05-13T04:31:26.567Z,65.51
2023-05-13T04:32:26.490Z,64.63
2023-05-13T04:33:26.440Z,64.89
2023-05-13T04:34:26.438Z,63.99
2023-05-13T04:35:26.475Z,64.96
2023-05-13T04:36:26.439Z,65.45
2023-05-13T04:37:26.456Z,65.04
2023-05-13T04:38:26.411Z,64.14
2023-05-13T04:39:26.409Z,66.31
2023-05-13T04:40:26.424Z,65.56
2023-05-13T04:41:26.389Z,66.65
2023-05-13T04:42:26.372Z,66.22
2023-05-13T04:43:26.403Z,66.96
2023-05-13T04:44:26.345Z,68.10
2023-05-13T04:45:26.327Z,67.36
2023-05-13T04:46:26.435Z,64.53
2023-05-13T04:47:26.427Z,66.11
2023-05-13T04:48:26.279Z,66.21
2023-05-13T04:49:26.279Z,65.92
2023-05-13T04:50:26.273Z,64.65
2023-05-13T04:51:26.245Z,64.25
2023-05-13T04:52:27.002Z,63.93
2023-05-13T04:53:26.270Z,65.33
2023-05-13T04:54:26.214Z,62.64
2023-05-13T04:55:27.800Z,65.83
2023-05-13T04:56:26.163Z,66.56
2023-05-13T04:57:26.386Z,66.29
2023-05-13T04:58:26.155Z,63.08
2023-05-13T04:59:26.193Z,65.22
2023-05-13T05:00:26.186Z,65.91
2023-05-13T05:01:26.173Z,66.04
2023-05-13T05:02:26.139Z,64.80
2023-05-13T05:03:26.134Z,63.58
2023-05-13T05:04:26.094Z,64.05
2023-05-13T05:05:26.134Z,65.80
2023-05-13T05:06:26.085Z,64.37
2023-05-13T05:07:26.067Z,64.38
2023-05-13T05:08:26.114Z,64.47
2023-05-13T05:09:26.036Z,64.39
2023-05-13T05:10:26.046Z,66.13
2023-05-13T05:11:26.014Z,65.23
2023-05-13T05:12:26.027Z,66.37
2023-05-13T05:13:26.014Z,64.81
2023-05-13T05:14:25.973Z,64.68
2023-05-13T05:15:25.978Z,62.87
2023-05-13T05:16:25.955Z,66.32
2023-05-13T05:17:25.961Z,63.98
2023-05-13T05:18:25.999Z,64.69
2023-05-13T05:19:25.981Z,64.34
2023-05-13T05:20:25.904Z,64.69
2023-05-13T05:21:25.945Z,63.92
2023-05-13T05:22:25.888Z,63.85
2023-05-13T05:23:25.887Z,64.58
2023-05-13T05:24:25.922Z,66.45
2023-05-13T05:25:25.881Z,64.36
2023-05-13T05:26:25.822Z,64.20
2023-05-13T05:27:25.845Z,65.04
2023-05-13T05:28:25.816Z,63.67
2023-05-13T05:29:25.805Z,64.54
2023-05-13T05:30:25.840Z,63.89
2023-05-13T05:31:25.807Z,64.41
2023-05-13T05:32:25.866Z,66.57
2023-05-13T05:33:25.798Z,65.98
2023-05-13T05:34:25.798Z,65.83
2023-05-13T05:35:25.821Z,67.60
2023-05-13T05:36:25.735Z,63.48
2023-05-13T05:37:25.711Z,66.17
2023-05-13T05:38:25.731Z,64.16
2023-05-13T05:39:25.740Z,63.64
2023-05-13T05:40:25.761Z,63.39
2023-05-13T05:41:25.818Z,62.09
2023-05-13T05:42:25.693Z,64.35
2023-05-13T05:43:25.653Z,63.00
2023-05-13T05:44:25.641Z,63.44
2023-05-13T05:45:25.653Z,63.54
2023-05-13T05:46:25.778Z,64.16
2023-05-13T05:47:25.624Z,64.37
2023-05-13T05:48:25.636Z,64.63
2023-05-13T05:49:25.585Z,62.80
2023-05-13T05:50:25.692Z,61.81
2023-05-13T05:51:25.613Z,63.74
2023-05-13T05:52:25.559Z,61.16
2023-05-13T05:53:25.583Z,63.23
2023-05-13T05:54:25.549Z,62.94
2023-05-13T05:55:25.524Z,63.42
2023-05-13T05:56:25.540Z,64.35
2023-05-13T05:57:25.536Z,64.47
2023-05-13T05:58:25.493Z,63.00
2023-05-13T05:59:25.504Z,63.69
2023-05-13T06:00:25.503Z,64.04
2023-05-13T06:01:25.472Z,64.87
2023-05-13T06:02:25.565Z,62.12
2023-05-13T06:03:25.625Z,62.68
2023-05-13T06:04:25.452Z,62.50
2023-05-13T06:05:25.488Z,64.92
2023-05-13T06:06:25.467Z,63.95
2023-05-13T06:07:25.468Z,63.93
2023-05-13T06:08:25.401Z,65.73
2023-05-13T06:09:25.429Z,67.38
2023-05-13T06:10:25.411Z,66.39
2023-05-13T06:11:25.361Z,63.85
2023-05-13T06:12:25.349Z,64.04
2023-05-13T06:13:25.444Z,63.49
2023-05-13T06:14:25.362Z,63.39
2023-05-13T06:15:25.307Z,63.18
2023-05-13T06:16:25.391Z,61.97
2023-05-13T06:17:25.308Z,61.13
2023-05-13T06:18:25.348Z,64.43
2023-05-13T06:19:25.324Z,62.93
2023-05-13T06:20:25.289Z,62.18
2023-05-13T06:21:25.259Z,63.02
2023-05-13T06:22:25.250Z,58.70
2023-05-13T06:23:25.225Z,58.41
2023-05-13T06:24:25.263Z,57.60
2023-05-13T06:25:25.263Z,58.06
2023-05-13T06:26:25.205Z,57.18
2023-05-13T06:27:26.843Z,55.78
2023-05-13T06:28:25.193Z,55.05
2023-05-13T06:29:25.179Z,54.63
2023-05-13T06:30:25.176Z,54.51
2023-05-13T06:31:25.163Z,55.59
2023-05-13T06:32:25.163Z,54.04
2023-05-13T06:33:25.146Z,55.06
2023-05-13T06:34:25.138Z,58.27
2023-05-13T06:35:25.095Z,57.47
2023-05-13T06:36:25.521Z,57.29
2023-05-13T06:37:25.081Z,54.82
2023-05-13T06:38:25.138Z,56.06
2023-05-13T06:39:25.033Z,54.49
2023-05-13T06:40:25.077Z,55.09
2023-05-13T06:41:25.076Z,55.40
2023-05-13T06:42:25.029Z,56.72
2023-05-13T06:43:25.006Z,57.06
2023-05-13T06:44:24.957Z,55.85
2023-05-13T06:45:25.479Z,57.95
2023-05-13T06:46:24.973Z,56.88
2023-05-13T06:47:25.075Z,58.07
2023-05-13T06:48:24.915Z,57.50
2023-05-13T06:49:24.967Z,57.25
2023-05-13T06:50:25.012Z,58.79
2023-05-13T06:51:24.924Z,56.02
2023-05-13T06:52:24.894Z,56.76
2023-05-13T06:53:24.894Z,56.26
2023-05-13T06:54:24.831Z,54.21
2023-05-13T06:55:24.865Z,55.75
2023-05-13T06:56:24.873Z,54.34
2023-05-13T06:57:32.312Z,54.55
2023-05-13T06:58:26.791Z,54.02
2023-05-13T06:59:24.777Z,54.99
2023-05-13T07:00:24.831Z,54.70
2023-05-13T07:01:24.865Z,56.61
2023-05-13T07:02:24.746Z,56.46
2023-05-13T07:03:24.775Z,55.43
2023-05-13T07:04:24.771Z,57.15
2023-05-13T07:05:24.785Z,53.98
2023-05-13T07:06:24.691Z,54.01
2023-05-13T07:07:24.714Z,55.15
2023-05-13T07:08:24.726Z,55.34
2023-05-13T07:09:24.655Z,55.50
2023-05-13T07:10:24.799Z,54.93
2023-05-13T07:11:24.621Z,52.26
2023-05-13T07:12:24.677Z,55.55
2023-05-13T07:13:24.633Z,54.57
2023-05-13T07:14:24.633Z,55.12
2023-05-13T07:15:24.581Z,53.90
2023-05-13T07:16:24.637Z,53.05
2023-05-13T07:17:24.659Z,54.17
2023-05-13T07:18:24.725Z,54.01
2023-05-13T07:19:24.602Z,53.44
2023-05-13T07:20:24.725Z,54.25
2023-05-13T07:21:24.565Z,55.57
2023-05-13T07:22:24.523Z,55.40
2023-05-13T07:23:24.515Z,55.03
2023-05-13T07:24:24.481Z,56.16
2023-05-13T07:25:24.518Z,53.92
2023-05-13T07:26:24.463Z,53.98
2023-05-13T07:27:24.438Z,54.64
2023-05-13T07:28:24.514Z,57.61
2023-05-13T07:29:25.822Z,56.27
2023-05-13T07:30:24.705Z,55.06
2023-05-13T07:31:25.215Z,54.67
2023-05-13T07:32:24.506Z,55.73
2023-05-13T07:33:24.434Z,55.66
2023-05-13T07:34:24.440Z,54.01
2023-05-13T07:35:24.596Z,53.04
2023-05-13T07:36:24.782Z,55.53
2023-05-13T07:37:24.436Z,55.94
2023-05-13T07:38:24.540Z,55.00
2023-05-13T07:39:24.513Z,55.58
2023-05-13T07:40:25.099Z,56.47
2023-05-13T07:41:24.356Z,57.40
2023-05-13T07:42:24.328Z,57.23
2023-05-13T07:43:24.305Z,54.92
2023-05-13T07:44:24.286Z,56.07
2023-05-13T07:45:24.813Z,57.15
2023-05-13T07:46:24.322Z,56.40
2023-05-13T07:47:24.237Z,57.44
2023-05-13T07:48:24.286Z,56.36
2023-05-13T07:49:24.235Z,55.59
2023-05-13T07:50:24.366Z,55.14
2023-05-13T07:51:24.191Z,55.78
2023-05-13T07:52:24.235Z,55.90
2023-05-13T07:53:24.178Z,55.65
2023-05-13T07:54:24.675Z,55.90
2023-05-13T07:55:24.485Z,55.27
2023-05-13T07:56:24.574Z,54.94
2023-05-13T08:13:27.791Z,55.69
2023-05-13T08:14:27.762Z,54.79
2023-05-13T08:15:27.676Z,55.30
2023-05-13T08:16:27.818Z,55.93
2023-05-13T08:17:27.572Z,55.14
2023-05-13T08:18:27.618Z,55.83
2023-05-13T08:19:27.527Z,57.65
2023-05-13T08:20:27.560Z,55.54
2023-05-13T08:21:27.498Z,55.90
2023-05-13T08:22:27.519Z,56.94
2023-05-13T08:23:43.326Z,56.84
2023-05-13T08:24:30.627Z,56.30
2023-05-13T08:25:28.615Z,56.92
2023-05-13T08:26:28.572Z,57.51
2023-05-13T08:27:28.547Z,57.55
2023-05-13T08:28:28.536Z,56.23
2023-05-13T08:29:28.516Z,57.82
2023-05-13T08:30:28.526Z,57.06
2023-05-13T08:31:28.526Z,55.62
2023-05-13T08:32:28.500Z,55.86
2023-05-13T08:33:28.480Z,55.39
2023-05-13T08:34:28.452Z,53.57
2023-05-13T08:35:28.467Z,54.34
2023-05-13T08:36:28.492Z,55.77
2023-05-13T08:37:28.426Z,55.15
2023-05-13T08:38:28.437Z,55.88
2023-05-13T08:39:28.398Z,57.10
2023-05-13T08:40:28.394Z,55.08
2023-05-13T08:41:28.436Z,55.20
2023-05-13T08:42:28.366Z,54.90
2023-05-13T08:43:28.358Z,56.39
2023-05-13T08:44:28.368Z,55.26
2023-05-13T08:45:28.347Z,55.62
2023-05-13T08:46:28.381Z,56.18
2023-05-13T08:47:28.395Z,55.65
2023-05-13T08:48:28.309Z,55.43
2023-05-13T08:49:28.292Z,54.57
2023-05-13T08:50:28.304Z,53.95
2023-05-13T08:51:28.266Z,54.38
2023-05-13T08:52:28.288Z,57.36
2023-05-13T08:53:28.231Z,56.35
2023-05-13T08:54:28.232Z,54.44
2023-05-13T08:55:28.205Z,55.86
2023-05-13T08:56:28.237Z,56.45
2023-05-13T08:57:28.191Z,55.36
2023-05-13T08:58:29.208Z,54.10
2023-05-13T08:59:28.180Z,54.84
2023-05-13T09:00:28.259Z,52.93
2023-05-13T09:01:28.179Z,54.17
2023-05-13T09:02:28.180Z,54.77
2023-05-13T09:03:28.180Z,53.91
2023-05-13T09:04:28.120Z,56.04
2023-05-13T09:05:28.391Z,54.32
2023-05-13T09:06:28.081Z,55.12
2023-05-13T09:07:28.092Z,54.64
2023-05-13T09:08:28.117Z,54.90
2023-05-13T09:09:28.218Z,54.98
2023-05-13T09:10:28.043Z,55.11
2023-05-13T09:11:28.019Z,54.72
2023-05-13T09:12:28.008Z,54.56
2023-05-13T09:13:28.005Z,52.82
2023-05-13T09:14:28.033Z,54.12
2023-05-13T09:15:27.996Z,53.09
2023-05-13T09:16:28.033Z,52.93
2023-05-13T09:17:27.957Z,54.37
2023-05-13T09:18:28.001Z,55.80
2023-05-13T09:19:28.211Z,53.74
2023-05-13T09:20:27.922Z,53.99
2023-05-13T09:21:27.924Z,53.84
2023-05-13T09:22:27.906Z,52.71
2023-05-13T09:23:27.872Z,53.18
2023-05-13T09:24:27.868Z,54.79
2023-05-13T09:25:27.935Z,55.57
2023-05-13T09:26:27.872Z,55.24
2023-05-13T09:27:27.832Z,53.80
2023-05-13T09:28:27.891Z,54.37
2023-05-13T09:29:27.821Z,53.60
2023-05-13T09:30:27.963Z,56.97
2023-05-13T09:31:27.842Z,56.84
2023-05-13T09:32:27.941Z,55.34
2023-05-13T09:33:28.790Z,55.07
2023-05-13T09:34:27.757Z,55.34
2023-05-13T09:35:27.727Z,60.37
2023-05-13T09:36:27.766Z,60.90
2023-05-13T09:37:27.752Z,57.75
2023-05-13T09:38:27.762Z,58.04
2023-05-13T09:39:27.759Z,57.28
2023-05-13T09:40:27.719Z,57.56
2023-05-13T09:41:27.699Z,59.33
2023-05-13T09:42:27.660Z,56.59
2023-05-13T09:43:27.681Z,56.54
2023-05-13T09:44:27.638Z,56.75
2023-05-13T09:45:27.632Z,58.62
2023-05-13T09:46:27.712Z,60.99
2023-05-13T09:47:27.622Z,62.82
2023-05-13T09:48:28.538Z,61.16
2023-05-13T09:49:27.650Z,62.83
2023-05-13T09:50:27.603Z,59.88
2023-05-13T09:51:27.599Z,57.48
2023-05-13T09:52:27.578Z,57.90
2023-05-13T09:53:27.543Z,57.44
2023-05-13T09:54:27.532Z,55.18
2023-05-13T09:55:27.956Z,53.90
2023-05-13T09:56:27.507Z,53.67
2023-05-13T09:57:27.570Z,54.67
2023-05-13T09:58:27.473Z,56.65
2023-05-13T09:59:27.514Z,54.31
2023-05-13T10:00:32.705Z,55.62
2023-05-13T10:01:27.602Z,53.68
2023-05-13T10:02:27.546Z,56.51
2023-05-13T10:03:27.479Z,56.21
2023-05-13T10:04:27.902Z,58.67
2023-05-13T10:05:27.390Z,56.30
2023-05-13T10:06:27.410Z,54.58
2023-05-13T10:07:27.390Z,54.37
2023-05-13T10:08:27.402Z,55.78
2023-05-13T10:09:27.347Z,58.34
2023-05-13T10:10:27.377Z,56.80
2023-05-13T10:11:27.354Z,59.05
2023-05-13T10:12:27.310Z,57.98
2023-05-13T10:13:27.322Z,60.10
2023-05-13T10:14:27.450Z,59.95
2023-05-13T10:15:28.050Z,61.02
2023-05-13T10:16:27.307Z,57.23
2023-05-13T10:17:27.271Z,56.42
2023-05-13T10:18:27.315Z,56.76
2023-05-13T10:19:27.241Z,56.79
2023-05-13T10:20:27.247Z,56.41
2023-05-13T10:21:27.203Z,55.74
2023-05-13T10:22:27.195Z,55.71
2023-05-13T10:23:27.202Z,55.32
2023-05-13T10:24:27.824Z,53.83
2023-05-13T10:25:27.160Z,56.06
2023-05-13T10:26:27.283Z,57.13
2023-05-13T10:27:27.161Z,56.90
2023-05-13T10:28:27.128Z,55.56
2023-05-13T10:29:27.193Z,53.09
2023-05-13T10:30:27.126Z,53.78
2023-05-13T10:31:27.180Z,54.94
2023-05-13T10:32:27.078Z,55.00
2023-05-13T10:33:27.042Z,54.19
2023-05-13T10:34:27.084Z,52.78
2023-05-13T10:35:28.853Z,53.59
2023-05-13T10:36:27.033Z,53.33
2023-05-13T10:37:27.604Z,54.25
2023-05-13T10:38:27.102Z,54.50
2023-05-13T10:39:27.127Z,53.88
2023-05-13T10:40:27.070Z,55.65
2023-05-13T10:41:27.012Z,56.76
2023-05-13T10:42:26.954Z,56.31
2023-05-13T10:43:26.978Z,55.62
2023-05-13T10:44:26.925Z,56.58
2023-05-13T10:45:26.977Z,54.93
2023-05-13T10:46:26.923Z,55.14
2023-05-13T10:47:27.036Z,54.67
2023-05-13T10:48:27.011Z,54.94
2023-05-13T10:49:26.900Z,53.09
2023-05-13T10:50:27.651Z,56.18
2023-05-13T10:51:26.885Z,55.55
2023-05-13T10:52:27.082Z,53.87
2023-05-13T10:53:26.866Z,55.24
2023-05-13T10:54:26.810Z,54.11
2023-05-13T10:55:26.812Z,55.11
2023-05-13T10:56:26.915Z,53.73
2023-05-13T10:57:26.913Z,54.27
2023-05-13T10:58:26.779Z,54.75
2023-05-13T10:59:27.480Z,53.52
2023-05-13T11:00:26.769Z,56.03
2023-05-13T11:01:27.009Z,57.02
2023-05-13T11:02:26.865Z,57.41
2023-05-13T11:03:28.950Z,58.21
2023-05-13T11:04:27.715Z,58.93
2023-05-13T11:05:26.713Z,59.49
2023-05-13T11:06:26.787Z,63.34
2023-05-13T11:07:26.698Z,65.52
2023-05-13T11:08:26.670Z,65.42
2023-05-13T11:09:26.655Z,61.90
2023-05-13T11:10:27.443Z,62.64
2023-05-13T11:11:26.629Z,61.95
2023-05-13T11:12:26.713Z,62.38
2023-05-13T11:13:26.650Z,63.54
2023-05-13T11:14:26.636Z,63.43
2023-05-13T11:15:26.614Z,64.52
2023-05-13T11:16:26.653Z,63.21
2023-05-13T11:17:26.674Z,63.36
2023-05-13T11:18:26.572Z,64.90
2023-05-13T11:19:26.556Z,63.94
2023-05-13T11:20:26.517Z,63.36
2023-05-13T11:21:26.555Z,62.53
2023-05-13T11:22:26.559Z,61.46
2023-05-13T11:23:26.567Z,61.06
2023-05-13T11:24:27.518Z,61.25
2023-05-13T11:25:26.498Z,61.32
2023-05-13T11:26:26.533Z,64.93
2023-05-13T11:27:26.480Z,62.28
2023-05-13T11:28:26.542Z,63.50
2023-05-13T11:29:26.480Z,61.89
2023-05-13T11:30:27.843Z,63.11
2023-05-13T11:31:26.442Z,62.52
2023-05-13T11:32:26.469Z,61.32
2023-05-13T11:33:26.403Z,62.00
2023-05-13T11:34:26.503Z,61.47
2023-05-13T11:35:26.390Z,62.87
2023-05-13T11:36:26.420Z,63.36
2023-05-13T11:37:26.345Z,63.43
2023-05-13T11:38:26.315Z,64.40
2023-05-13T11:39:26.464Z,63.83
2023-05-13T11:40:26.343Z,63.87
2023-05-13T11:41:26.447Z,63.01
2023-05-13T11:42:26.329Z,59.01
2023-05-13T11:43:26.322Z,62.56
2023-05-13T11:44:26.394Z,62.01
2023-05-13T11:45:26.268Z,63.28
2023-05-13T11:46:26.286Z,64.56
2023-05-13T11:47:26.298Z,62.87
2023-05-13T11:48:26.393Z,62.42
2023-05-13T11:49:26.229Z,60.29
2023-05-13T11:50:26.242Z,63.08
2023-05-13T11:51:26.464Z,63.70
2023-05-13T11:52:26.183Z,63.64
2023-05-13T11:53:26.269Z,62.45
2023-05-13T11:54:26.222Z,62.34
2023-05-13T11:55:26.382Z,61.54
2023-05-13T11:56:26.209Z,64.00
2023-05-13T11:57:27.236Z,62.35
2023-05-13T11:58:26.135Z,62.84
2023-05-13T11:59:27.931Z,63.15
2023-05-13T12:00:26.063Z,63.02
2023-05-13T12:01:26.113Z,62.85
2023-05-13T12:02:26.359Z,62.18
2023-05-13T12:03:26.370Z,63.17
2023-05-13T12:04:26.176Z,64.47
2023-05-13T12:05:26.318Z,62.33
2023-05-13T12:06:26.029Z,62.93
2023-05-13T12:07:26.018Z,64.72
2023-05-13T12:08:25.981Z,64.13
2023-05-13T12:09:26.033Z,64.44
2023-05-13T12:10:25.965Z,63.27
2023-05-13T12:11:25.983Z,61.54
2023-05-13T12:12:26.031Z,62.10
2023-05-13T12:13:25.988Z,63.56
2023-05-13T12:14:27.694Z,63.31
2023-05-13T12:15:26.303Z,62.58
2023-05-13T12:16:26.075Z,64.36
2023-05-13T12:17:25.980Z,61.61
2023-05-13T12:18:25.898Z,62.66
2023-05-13T12:19:25.943Z,62.10
2023-05-13T12:20:25.849Z,63.36
2023-05-13T12:21:25.847Z,63.56
2023-05-13T12:22:25.826Z,63.68
2023-05-13T12:23:26.147Z,62.53
2023-05-13T12:24:25.975Z,62.60
2023-05-13T12:25:26.110Z,62.13
2023-05-13T12:26:26.071Z,62.90
2023-05-13T12:27:25.903Z,62.64
2023-05-13T12:28:25.937Z,61.01
2023-05-13T12:29:25.770Z,61.83
2023-05-13T12:30:25.780Z,59.44
2023-05-13T12:31:25.734Z,61.05
2023-05-13T12:32:25.774Z,60.61
2023-05-13T12:33:25.770Z,58.88
2023-05-13T12:34:25.669Z,57.80
2023-05-13T12:35:25.823Z,57.22
2023-05-13T12:36:25.781Z,57.45
2023-05-13T12:37:25.652Z,58.56
2023-05-13T12:38:25.743Z,59.78
2023-05-13T12:39:25.602Z,59.27
2023-05-13T12:40:25.580Z,59.52
2023-05-13T12:41:25.609Z,60.01
2023-05-13T12:42:25.615Z,61.67
2023-05-13T12:43:25.562Z,61.86
2023-05-13T12:44:25.516Z,63.15
2023-05-13T12:45:25.495Z,62.69
2023-05-13T12:46:25.592Z,62.96
2023-05-13T12:47:25.524Z,61.61
2023-05-13T12:48:25.474Z,61.98
2023-05-13T12:49:25.774Z,62.73
2023-05-13T12:50:26.409Z,62.43
2023-05-13T12:51:25.471Z,63.04
2023-05-13T12:52:25.393Z,63.11
2023-05-13T12:53:25.613Z,62.82
2023-05-13T12:54:25.422Z,62.03
2023-05-13T12:55:25.389Z,64.97
2023-05-13T12:56:25.343Z,62.80
2023-05-13T12:57:25.387Z,63.31
2023-05-13T12:58:26.422Z,63.96
2023-05-13T12:59:28.444Z,64.64
2023-05-13T13:00:27.313Z,61.68
2023-05-13T13:01:25.325Z,57.66
2023-05-13T13:02:25.327Z,58.53
2023-05-13T13:03:25.390Z,58.52
2023-05-13T13:04:25.270Z,60.90
2023-05-13T13:05:25.429Z,57.92
2023-05-13T13:06:25.193Z,57.58
2023-05-13T13:07:25.221Z,59.12
2023-05-13T13:08:25.253Z,59.94